createdAt,value
2019-02-16T00:01:40.981Z,20.37
2019-02-16T00:04:09.838Z,17.62
2019-02-16T00:06:38.713Z,27.13
2019-02-16T00:09:08.205Z,21.93
2019-02-16T00:11:37.100Z,19.10
2019-02-16T00:14:06.101Z,15.90
2019-02-16T00:16:35.353Z,12.43
2019-02-16T00:19:04.683Z,12.58
2019-02-16T00:21:33.529Z,13.40
2019-02-16T00:24:02.669Z,14.83
2019-02-16T00:26:31.524Z,16.35
2019-02-16T00:29:00.908Z,15.45
2019-02-16T00:31:29.846Z,14.43
2019-02-16T00:33:58.762Z,15.20
2019-02-16T00:36:27.682Z,14.28
2019-02-16T00:38:56.597Z,13.08
2019-02-16T00:41:25.890Z,14.87
2019-02-16T00:43:55.232Z,17.60
2019-02-16T00:46:24.488Z,16.25
2019-02-16T00:48:53.819Z,15.88
2019-02-16T00:51:23.077Z,13.32
2019-02-16T00:53:51.941Z,12.57
2019-02-16T00:56:20.877Z,11.80
2019-02-16T00:58:49.820Z,15.20
2019-02-16T01:01:18.817Z,10.80
2019-02-16T01:03:48.078Z,11.65
2019-02-16T01:06:17.125Z,13.75
2019-02-16T01:08:45.979Z,12.58
2019-02-16T01:11:14.967Z,17.35
2019-02-16T01:13:43.973Z,13.72
2019-02-16T01:16:13.239Z,12.18
2019-02-16T01:18:42.509Z,15.10
2019-02-16T01:21:11.498Z,11.55
2019-02-16T01:23:41.044Z,12.70
2019-02-16T01:26:10.060Z,12.15
2019-02-16T01:28:38.910Z,13.40
2019-02-16T01:31:07.898Z,10.88
2019-02-16T01:33:36.808Z,15.25
2019-02-16T01:36:05.810Z,14.68
2019-02-16T01:38:34.807Z,11.93
2019-02-16T01:41:03.825Z,12.82
2019-02-16T01:43:32.756Z,12.93
2019-02-16T01:46:01.768Z,16.95
2019-02-16T01:48:31.045Z,15.68
2019-02-16T01:50:59.985Z,10.88
2019-02-16T01:53:28.990Z,11.55
2019-02-16T01:55:58.002Z,11.80
2019-02-16T01:58:26.924Z,10.23
2019-02-16T02:00:55.927Z,15.70
2019-02-16T02:03:24.837Z,15.30
2019-02-16T02:05:54.169Z,11.43
2019-02-16T02:08:23.390Z,10.25
2019-02-16T02:10:52.383Z,11.40
2019-02-16T02:13:21.573Z,13.43
2019-02-16T02:15:50.604Z,12.60
2019-02-16T02:18:19.525Z,11.57
2019-02-16T02:20:48.680Z,11.27
2019-02-16T02:23:17.616Z,11.93
2019-02-16T02:25:46.872Z,13.85
2019-02-16T02:28:15.793Z,14.43
2019-02-16T02:30:44.633Z,12.43
2019-02-16T02:33:13.540Z,13.15
2019-02-16T02:35:42.384Z,12.30
2019-02-16T02:38:11.290Z,11.88
2019-02-16T02:40:40.299Z,18.30
2019-02-16T02:43:09.133Z,13.13
2019-02-16T02:45:37.976Z,14.58
2019-02-16T02:48:07.191Z,14.07
2019-02-16T02:50:36.024Z,13.00
2019-02-16T02:53:05.013Z,14.03
2019-02-16T02:55:34.741Z,14.13
2019-02-16T02:58:03.576Z,11.83
2019-02-16T03:00:32.589Z,13.83
2019-02-16T03:03:01.457Z,11.20
2019-02-16T03:05:30.420Z,15.43
2019-02-16T03:07:59.414Z,13.85
2019-02-16T03:10:28.659Z,14.90
2019-02-16T03:12:57.798Z,12.18
2019-02-16T03:15:26.634Z,10.23
2019-02-16T03:17:55.809Z,15.30
2019-02-16T03:20:24.648Z,16.63
2019-02-16T03:23:13.755Z,18.15
2019-02-16T03:25:45.866Z,12.07
2019-02-16T03:28:26.765Z,13.08
2019-02-16T03:31:22.967Z,14.10
2019-02-16T03:34:16.943Z,13.03
2019-02-16T03:37:29.381Z,14.50
2019-02-16T03:39:58.588Z,13.10
2019-02-16T03:42:27.452Z,14.80
2019-02-16T03:44:56.365Z,13.48
2019-02-16T03:47:25.602Z,12.13
2019-02-16T03:49:54.860Z,11.20
2019-02-16T03:52:23.800Z,13.20
2019-02-16T03:54:52.620Z,16.00
2019-02-16T03:57:21.617Z,15.25
2019-02-16T03:59:50.729Z,16.50
2019-02-16T04:02:19.629Z,14.20
2019-02-16T04:04:48.529Z,14.85
2019-02-16T04:07:17.534Z,16.32
2019-02-16T04:09:46.821Z,14.23
2019-02-16T04:12:15.807Z,13.53
2019-02-16T04:14:44.648Z,14.43
2019-02-16T04:17:13.505Z,14.60
2019-02-16T04:19:42.333Z,12.95
2019-02-16T04:22:11.261Z,12.83
2019-02-16T04:24:40.101Z,13.15
2019-02-16T04:27:08.977Z,14.73
2019-02-16T04:29:37.926Z,13.70
2019-02-16T04:32:06.764Z,16.67
2019-02-16T04:34:35.620Z,16.10
2019-02-16T04:37:04.616Z,16.80
2019-02-16T04:39:33.476Z,14.45
2019-02-16T04:42:02.673Z,19.15
2019-02-16T04:44:31.598Z,14.43
2019-02-16T04:47:00.497Z,13.62
2019-02-16T04:49:29.413Z,16.40
2019-02-16T04:51:58.557Z,13.05
2019-02-16T04:54:27.410Z,13.28
2019-02-16T04:56:56.637Z,14.90
2019-02-16T04:59:25.468Z,14.40
2019-02-16T05:01:54.369Z,14.60
2019-02-16T05:04:23.288Z,12.67
2019-02-16T05:06:52.189Z,13.40
2019-02-16T05:09:21.330Z,10.77
2019-02-16T05:11:50.155Z,15.10
2019-02-16T05:14:19.001Z,12.50
2019-02-16T05:16:47.898Z,9.37
2019-02-16T05:19:16.780Z,12.13
2019-02-16T05:21:45.945Z,16.50
2019-02-16T05:24:14.852Z,11.47
2019-02-16T05:26:43.690Z,8.27
2019-02-16T05:29:12.520Z,11.00
2019-02-16T05:31:41.610Z,12.87
2019-02-16T05:34:10.436Z,12.33
2019-02-16T05:36:39.347Z,13.60
2019-02-16T05:39:08.180Z,9.30
2019-02-16T05:41:37.071Z,23.60
2019-02-16T05:44:05.981Z,9.53
2019-02-16T05:46:34.828Z,11.23
2019-02-16T05:49:03.691Z,7.30
2019-02-16T05:51:32.833Z,9.10
2019-02-16T05:54:01.665Z,12.30
2019-02-16T05:56:30.811Z,9.27
2019-02-16T05:58:59.648Z,11.23
2019-02-16T06:01:28.811Z,14.87
2019-02-16T06:03:57.657Z,14.60
2019-02-16T06:06:26.484Z,14.20
2019-02-16T06:08:55.393Z,9.47
2019-02-16T06:11:24.306Z,13.50
2019-02-16T06:13:53.204Z,12.60
2019-02-16T06:18:50.389Z,13.50
2019-02-16T06:21:19.320Z,13.85
2019-02-16T06:23:48.161Z,18.87
2019-02-16T06:26:17.016Z,13.30
2019-02-16T06:28:45.858Z,14.23
2019-02-16T06:31:14.770Z,14.68
2019-02-16T06:33:43.601Z,14.65
2019-02-16T06:36:19.052Z,14.50
2019-02-16T06:38:48.152Z,12.90
2019-02-16T06:41:16.968Z,12.85
2019-02-16T06:43:45.814Z,13.97
2019-02-16T06:46:14.660Z,11.75
2019-02-16T06:48:43.580Z,16.93
2019-02-16T06:51:12.421Z,16.80
2019-02-16T06:53:41.397Z,11.88
2019-02-16T06:56:19.093Z,13.33
2019-02-16T06:58:48.190Z,14.23
2019-02-16T07:01:17.325Z,14.80
2019-02-16T07:03:46.251Z,15.05
2019-02-16T07:06:15.094Z,16.52
2019-02-16T07:08:44.379Z,15.85
2019-02-16T07:11:13.691Z,15.28
2019-02-16T07:13:42.539Z,17.07
2019-02-16T07:16:30.537Z,15.55
2019-02-16T07:19:03.161Z,15.40
2019-02-16T07:21:32.008Z,19.73
2019-02-16T07:24:00.905Z,18.85
2019-02-16T07:26:30.093Z,18.50
2019-02-16T07:28:59.001Z,18.73
2019-02-16T07:31:27.869Z,24.30
2019-02-16T07:33:56.696Z,21.27
2019-02-16T07:36:25.554Z,21.55
2019-02-16T07:38:54.756Z,21.12
2019-02-16T07:41:23.686Z,24.82
2019-02-16T07:44:23.582Z,23.57
2019-02-16T07:47:14.812Z,22.63
2019-02-16T07:49:52.221Z,20.70
2019-02-16T07:52:40.399Z,18.55
2019-02-16T07:55:16.558Z,20.60
2019-02-16T07:57:56.789Z,22.17
2019-02-16T08:00:43.732Z,20.35
2019-02-16T08:03:22.835Z,21.10
2019-02-16T08:06:02.009Z,18.32
2019-02-16T08:08:38.315Z,22.50
2019-02-16T08:11:32.560Z,22.60
2019-02-16T08:14:11.456Z,19.52
2019-02-16T08:17:03.102Z,18.45
2019-02-16T08:19:51.042Z,17.73
2019-02-16T08:22:38.961Z,20.72
2019-02-16T08:25:26.136Z,16.97
2019-02-16T08:28:08.150Z,19.27
2019-02-16T08:30:56.393Z,17.67
2019-02-16T08:33:30.908Z,17.93
2019-02-16T08:36:33.982Z,14.00
2019-02-16T08:39:09.229Z,17.50
2019-02-16T08:41:57.213Z,13.90
2019-02-16T08:44:48.165Z,15.23
2019-02-16T08:47:27.626Z,14.70
2019-02-16T08:50:06.224Z,15.33
2019-02-16T08:52:47.221Z,26.10
2019-02-16T08:55:38.008Z,17.37
2019-02-16T08:58:15.304Z,16.50
2019-02-16T09:01:12.437Z,19.97
2019-02-16T09:03:48.517Z,22.57
2019-02-16T09:06:30.498Z,19.77
2019-02-16T09:09:27.621Z,20.43
2019-02-16T09:12:07.721Z,29.43
2019-02-16T09:15:01.284Z,20.10
2019-02-16T09:17:58.320Z,18.50
2019-02-16T09:20:52.629Z,18.30
2019-02-16T09:23:47.431Z,19.67
2019-02-16T09:26:24.584Z,17.77
2019-02-16T09:29:06.717Z,17.75
2019-02-16T09:31:53.533Z,24.50
2019-02-16T09:34:43.089Z,18.42
2019-02-16T09:37:31.072Z,20.00
2019-02-16T09:40:19.403Z,20.85
2019-02-16T09:43:02.372Z,24.47
2019-02-16T09:46:15.549Z,24.20
2019-02-16T09:49:18.930Z,26.83
2019-02-16T09:52:19.604Z,34.63
2019-02-16T09:55:05.844Z,24.60
2019-02-16T09:57:52.384Z,28.67
2019-02-16T10:00:27.790Z,26.10
2019-02-16T10:03:04.880Z,26.00
2019-02-16T10:05:52.801Z,25.13
2019-02-16T10:08:38.713Z,24.90
2019-02-16T10:11:25.461Z,26.60
2019-02-16T10:14:11.085Z,24.87
2019-02-16T10:16:51.958Z,26.52
2019-02-16T10:19:52.597Z,29.63
2019-02-16T10:22:52.664Z,29.85
2019-02-16T10:25:29.909Z,34.70
2019-02-16T10:28:26.166Z,31.45
2019-02-16T10:31:13.042Z,31.62
2019-02-16T10:33:58.409Z,29.82
2019-02-16T10:36:52.397Z,30.85
2019-02-16T10:39:30.718Z,25.88
2019-02-16T10:42:28.286Z,30.08
2019-02-16T10:45:06.888Z,27.15
2019-02-16T10:47:43.559Z,30.10
2019-02-16T10:50:43.861Z,30.15
2019-02-16T10:53:35.822Z,26.37
2019-02-16T10:56:17.930Z,26.95
2019-02-16T10:59:01.032Z,28.40
2019-02-16T11:01:54.986Z,28.63
2019-02-16T11:04:49.140Z,27.22
2019-02-16T11:07:25.886Z,27.37
2019-02-16T11:10:10.031Z,27.90
2019-02-16T11:13:01.428Z,29.57
2019-02-16T11:15:36.686Z,28.17
2019-02-16T11:18:13.462Z,26.17
2019-02-16T11:21:00.190Z,32.50
2019-02-16T11:23:35.900Z,26.40
2019-02-16T11:26:14.012Z,27.97
2019-02-16T11:28:55.508Z,26.40
2019-02-16T11:31:43.766Z,28.43
2019-02-16T11:34:25.525Z,22.00
2019-02-16T11:37:02.721Z,25.30
2019-02-16T11:40:02.957Z,28.57
2019-02-16T11:42:50.943Z,19.57
2019-02-16T11:45:45.374Z,23.47
2019-02-16T11:48:31.597Z,25.53
2019-02-16T11:51:21.854Z,53.70
2019-02-16T11:54:06.600Z,26.63
2019-02-16T11:56:43.607Z,21.70
2019-02-16T11:59:30.425Z,25.50
2019-02-16T12:02:18.776Z,24.80
2019-02-16T12:04:51.948Z,25.23
2019-02-16T12:07:45.498Z,25.97
2019-02-16T12:10:24.417Z,21.00
2019-02-16T12:13:24.630Z,22.80
2019-02-16T12:16:12.106Z,23.23
2019-02-16T12:19:00.749Z,16.63
2019-02-16T12:21:47.757Z,16.07
2019-02-16T12:24:31.293Z,20.50
2019-02-16T12:27:26.900Z,20.00
2019-02-16T12:30:33.450Z,16.83
2019-02-16T12:33:39.249Z,19.57
2019-02-16T12:36:21.928Z,22.00
2019-02-16T12:39:09.608Z,19.43
2019-02-16T12:42:00.580Z,16.13
2019-02-16T12:44:48.574Z,24.80
2019-02-16T12:47:27.749Z,28.97
2019-02-16T12:50:13.850Z,19.77
2019-02-16T12:53:05.173Z,17.80
2019-02-16T12:55:53.069Z,16.63
2019-02-16T12:58:53.148Z,15.63
2019-02-16T13:01:47.205Z,14.40
2019-02-16T13:04:33.778Z,22.93
2019-02-16T13:07:20.721Z,20.80
2019-02-16T13:10:08.918Z,14.27
2019-02-16T13:12:53.609Z,15.03
2019-02-16T13:15:47.808Z,21.40
2019-02-16T13:18:28.234Z,18.17
2019-02-16T13:21:16.261Z,15.83
2019-02-16T13:23:51.139Z,13.90
2019-02-16T13:26:36.909Z,18.13
2019-02-16T13:29:19.633Z,17.10
2019-02-16T13:32:04.288Z,12.40
2019-02-16T13:34:46.493Z,12.13
2019-02-16T13:37:52.658Z,17.00
2019-02-16T13:40:44.081Z,15.53
2019-02-16T13:43:38.169Z,12.37
2019-02-16T13:46:29.006Z,15.53
2019-02-16T13:49:05.851Z,16.57
2019-02-16T13:52:12.409Z,11.30
2019-02-16T13:54:49.797Z,13.47
2019-02-16T13:57:46.684Z,14.40
2019-02-16T14:00:32.750Z,12.60
2019-02-16T14:03:20.716Z,12.00
2019-02-16T14:06:27.099Z,12.40
2019-02-16T14:09:01.580Z,11.37
2019-02-16T14:11:47.952Z,11.20
2019-02-16T14:14:35.401Z,9.60
2019-02-16T14:17:22.585Z,11.63
2019-02-16T14:19:51.422Z,11.67
2019-02-16T14:22:20.324Z,12.07
2019-02-16T14:24:52.421Z,11.10
2019-02-16T14:27:21.249Z,10.40
2019-02-16T14:29:50.101Z,14.83
2019-02-16T14:32:19.009Z,12.77
2019-02-16T14:34:48.044Z,11.03
2019-02-16T14:37:48.093Z,16.30
2019-02-16T14:40:17.077Z,14.03
2019-02-16T14:42:45.912Z,13.20
2019-02-16T14:45:15.013Z,10.17
2019-02-16T14:47:44.045Z,15.90
2019-02-16T14:50:13.080Z,8.67
2019-02-16T14:52:41.918Z,16.27
2019-02-16T14:55:12.573Z,22.33
2019-02-16T14:57:41.817Z,19.83
2019-02-16T15:00:11.181Z,15.33
2019-02-16T15:02:40.171Z,12.70
2019-02-16T15:05:09.168Z,10.50
2019-02-16T15:07:38.152Z,13.80
2019-02-16T15:10:08.260Z,9.90
2019-02-16T15:12:37.246Z,9.60
2019-02-16T15:15:06.760Z,8.57
2019-02-16T15:17:35.601Z,19.77
2019-02-16T15:20:05.613Z,14.57
2019-02-16T15:22:34.453Z,16.20
2019-02-16T15:25:03.360Z,13.67
2019-02-16T15:27:32.624Z,16.83
2019-02-16T15:30:01.466Z,14.67
2019-02-16T15:32:30.981Z,9.77
2019-02-16T15:35:00.708Z,23.17
2019-02-16T15:37:29.812Z,10.07
2019-02-16T15:39:58.647Z,12.40
2019-02-16T15:42:27.776Z,12.40
2019-02-16T15:44:56.671Z,7.03
2019-02-16T15:47:26.012Z,13.53
2019-02-16T15:49:54.996Z,27.50
2019-02-16T15:52:23.983Z,29.50
2019-02-16T15:54:52.820Z,24.00
2019-02-16T15:57:24.586Z,15.50
2019-02-16T15:59:53.458Z,105.20
2019-02-16T16:02:22.432Z,135.30
2019-02-16T16:04:51.573Z,111.93
2019-02-16T16:07:20.693Z,73.23
2019-02-16T16:10:06.386Z,20.37
2019-02-16T16:12:53.165Z,9.37
2019-02-16T16:15:47.198Z,14.33
2019-02-16T16:18:43.447Z,5.40
2019-02-16T16:21:40.385Z,7.43
2019-02-16T16:24:40.497Z,5.13
2019-02-16T16:27:31.823Z,6.20
2019-02-16T16:30:19.712Z,5.20
2019-02-16T16:33:08.205Z,8.00
2019-02-16T16:35:54.245Z,9.80
2019-02-16T16:38:51.812Z,6.97
2019-02-16T16:41:42.660Z,11.10
2019-02-16T16:44:34.221Z,8.63
2019-02-16T16:47:16.766Z,8.73
2019-02-16T16:49:57.281Z,8.07
2019-02-16T16:52:44.421Z,12.23
2019-02-16T16:55:35.816Z,7.07
2019-02-16T16:58:14.741Z,8.80
2019-02-16T17:01:01.545Z,11.40
2019-02-16T17:03:48.434Z,32.37
2019-02-16T17:06:45.737Z,9.13
2019-02-16T17:09:22.810Z,39.87
2019-02-16T17:12:23.125Z,40.57
2019-02-16T17:15:00.321Z,20.70
2019-02-16T17:17:57.645Z,26.70
2019-02-16T17:20:54.673Z,12.50
2019-02-16T17:23:34.269Z,10.20
2019-02-16T17:26:12.366Z,17.20
2019-02-16T17:28:52.633Z,12.57
2019-02-16T17:31:46.722Z,10.00
2019-02-16T19:37:06.374Z,20.53
2019-02-16T19:39:42.231Z,22.32
2019-02-16T19:42:29.175Z,21.10
2019-02-16T19:45:17.689Z,28.00
2019-02-16T19:47:57.125Z,34.30
2019-02-16T19:50:44.551Z,25.45
2019-02-16T19:53:28.397Z,25.75
2019-02-16T19:56:15.268Z,31.93
2019-02-16T19:59:03.193Z,43.30
2019-02-16T20:02:00.501Z,32.28
2019-02-16T20:04:51.553Z,24.95
2019-02-16T20:07:45.488Z,25.40
2019-02-16T20:10:30.154Z,23.00
2019-02-16T20:13:20.449Z,23.02
2019-02-16T20:15:55.261Z,24.50
2019-02-16T20:18:30.813Z,28.40
2019-02-16T20:21:10.341Z,28.90
2019-02-16T20:24:01.336Z,29.50
2019-02-16T20:26:55.245Z,29.18
2019-02-16T20:29:29.891Z,29.35
2019-02-16T20:32:18.106Z,30.23
2019-02-16T20:35:04.693Z,31.65
2019-02-16T20:37:44.850Z,35.68
2019-02-16T20:40:36.337Z,31.30
2019-02-16T20:43:20.624Z,30.50
2019-02-16T20:46:11.425Z,33.95
2019-02-16T20:49:00.395Z,29.32
2019-02-16T20:51:44.661Z,29.10
2019-02-16T20:54:21.821Z,28.32
2019-02-16T20:57:00.875Z,28.38
2019-02-16T21:00:04.373Z,29.12
2019-02-16T21:02:43.068Z,32.28
2019-02-16T21:05:29.755Z,42.03
2019-02-16T21:08:33.150Z,35.33
2019-02-16T21:11:11.080Z,33.00
2019-02-16T21:13:50.648Z,36.95
2019-02-16T21:16:36.736Z,29.80
2019-02-16T21:19:26.612Z,43.20
2019-02-16T21:22:13.635Z,35.90
2019-02-16T21:25:07.669Z,35.92
2019-02-16T21:27:44.360Z,38.65
2019-02-16T21:30:31.096Z,46.45
2019-02-16T21:33:22.212Z,36.00
2019-02-16T21:36:04.794Z,37.05
2019-02-16T21:39:11.148Z,34.23
2019-02-16T21:41:50.493Z,36.80
2019-02-16T21:44:28.185Z,38.30
2019-02-16T21:47:18.687Z,39.88
2019-02-16T21:50:05.540Z,36.60
2019-02-16T21:52:59.561Z,36.67
2019-02-16T21:56:05.612Z,35.52
2019-02-16T21:58:52.425Z,35.33
2019-02-16T22:01:58.461Z,32.48
2019-02-16T22:04:46.735Z,33.50
2019-02-16T22:07:37.601Z,35.50
2019-02-16T22:10:19.458Z,35.80
2019-02-16T22:13:00.336Z,33.25
2019-02-16T22:15:29.350Z,40.03
2019-02-16T22:17:58.176Z,39.65
2019-02-16T22:20:27.029Z,38.23
2019-02-16T22:22:55.876Z,31.17
2019-02-16T22:25:25.082Z,31.80
2019-02-16T22:27:53.909Z,25.53
2019-02-16T22:30:22.827Z,25.20
2019-02-16T22:32:51.729Z,23.77
2019-02-16T22:35:20.565Z,30.97
2019-02-16T22:37:49.746Z,19.33
2019-02-16T23:29:41.152Z,14.10
2019-02-16T23:32:10.064Z,28.77
2019-02-16T23:34:38.893Z,21.03
2019-02-16T23:37:08.140Z,17.40
2019-02-16T23:39:37.053Z,19.40
2019-02-16T23:42:06.237Z,14.07
2019-02-16T23:44:35.353Z,14.73
2019-02-16T23:47:04.253Z,12.77
2019-02-16T23:49:33.088Z,23.70
2019-02-16T23:52:02.201Z,18.70
2019-02-16T23:54:31.041Z,14.70
2019-02-16T23:56:59.953Z,13.33
2019-02-16T23:59:28.781Z,12.20
